Mc Grath, Alaska
Current Conditions -  °F | °C
As of 4:53 AM on Thursday 27 Nov 2014 (Local Time) from PAMC Reporting Station
Clear Clear  
Wind Chill:   Ceiling: Unl
Heat Index:   Visibility: 10mi
Dew Point: -5°   Wind: 0mph
Humidity: 79%   Direction: NA
Pressure: 30.34"   Gusts: NA
Location:  63.1005°N, 155.153°W
Report Text: PAMC 271353Z 00000KT 10SM CLR M18/M21 A3034 RMK AO2 SLP286 T11781206 $
Loading
Personal Weather Stations






























Interactive Weather Map New forecast layout! Learn more

10-Day Weather Forecast

Advertisements
Track Severe Weather on mobile